createdAt,value
2019-05-14T00:01:51.437Z,8.30
2019-05-14T00:04:22.057Z,8.20
2019-05-14T00:06:51.944Z,8.20
2019-05-14T00:09:21.531Z,8.10
2019-05-14T00:11:51.262Z,8.10
2019-05-14T00:14:22.075Z,8.00
2019-05-14T00:16:51.409Z,8.00
2019-05-14T00:19:21.549Z,7.90
2019-05-14T00:21:51.387Z,7.90
2019-05-14T00:24:21.710Z,7.90
2019-05-14T00:26:51.697Z,7.80
2019-05-14T00:29:21.984Z,7.80
2019-05-14T00:31:51.716Z,7.70
2019-05-14T00:34:21.447Z,7.60
2019-05-14T00:36:52.425Z,7.50
2019-05-14T00:39:21.406Z,7.40
2019-05-14T00:41:51.309Z,7.40
2019-05-14T00:44:21.558Z,7.40
2019-05-14T00:46:51.681Z,7.30
2019-05-14T00:49:21.263Z,7.40
2019-05-14T00:51:51.917Z,7.40
2019-05-14T00:54:21.523Z,7.40
2019-05-14T00:56:52.142Z,7.40
2019-05-14T00:59:21.620Z,7.30
2019-05-14T01:01:51.593Z,7.20
2019-05-14T01:04:22.254Z,7.10
2019-05-14T01:06:51.518Z,7.10
2019-05-14T01:09:21.839Z,7.10
2019-05-14T01:11:51.286Z,7.10
2019-05-14T01:14:21.110Z,7.00
2019-05-14T01:16:51.412Z,7.10
2019-05-14T01:19:21.411Z,7.10
2019-05-14T01:21:51.076Z,7.10
2019-05-14T01:24:21.572Z,7.10
2019-05-14T01:26:52.340Z,7.10
2019-05-14T01:29:21.937Z,7.10
2019-05-14T01:31:52.026Z,7.10
2019-05-14T01:34:21.664Z,7.00
2019-05-14T01:36:52.799Z,7.00
2019-05-14T01:39:21.899Z,7.00
2019-05-14T01:41:51.662Z,7.00
2019-05-14T01:44:21.359Z,7.10
2019-05-14T01:46:51.266Z,7.10
2019-05-14T01:49:22.176Z,7.10
2019-05-14T01:51:51.238Z,7.00
2019-05-14T01:54:21.186Z,7.00
2019-05-14T01:56:51.470Z,7.00
2019-05-14T01:59:21.354Z,6.90
2019-05-14T02:01:51.772Z,6.90
2019-05-14T02:04:22.116Z,6.90
2019-05-14T02:06:51.706Z,7.00
2019-05-14T02:09:21.731Z,7.00
2019-05-14T02:11:51.904Z,7.00
2019-05-14T02:14:21.981Z,7.00
2019-05-14T02:16:51.315Z,7.00
2019-05-14T02:19:22.180Z,7.00
2019-05-14T02:21:51.533Z,6.90
2019-05-14T02:24:21.783Z,6.90
2019-05-14T02:26:51.411Z,6.80
2019-05-14T02:29:21.428Z,6.80
2019-05-14T02:31:50.804Z,6.80
2019-05-14T02:34:20.162Z,6.80
2019-05-14T02:36:49.843Z,6.80
2019-05-14T02:39:19.763Z,6.80
2019-05-14T02:41:49.858Z,6.80
2019-05-14T02:44:19.364Z,6.90
2019-05-14T02:46:50.563Z,6.90
2019-05-14T02:49:19.420Z,6.90
2019-05-14T02:51:50.341Z,6.80
2019-05-14T02:54:20.401Z,6.80
2019-05-14T02:56:49.736Z,6.70
2019-05-14T02:59:19.686Z,6.80
2019-05-14T03:01:50.404Z,6.70
2019-05-14T03:04:19.981Z,6.70
2019-05-14T03:06:49.865Z,6.70
2019-05-14T03:09:20.334Z,6.70
2019-05-14T03:11:49.738Z,6.70
2019-05-14T03:14:19.579Z,6.70
2019-05-14T03:16:49.824Z,6.80
2019-05-14T03:19:19.732Z,6.80
2019-05-14T03:21:50.074Z,6.80
2019-05-14T03:24:19.766Z,6.80
2019-05-14T03:26:50.100Z,6.80
2019-05-14T03:29:19.763Z,6.80
2019-05-14T03:31:52.471Z,6.80
2019-05-14T03:34:22.130Z,6.80
2019-05-14T03:36:52.507Z,6.80
2019-05-14T03:39:20.947Z,6.80
2019-05-14T03:41:50.214Z,6.80
2019-05-14T03:44:19.945Z,6.90
2019-05-14T03:46:55.162Z,6.90
2019-05-14T03:49:20.169Z,6.80
2019-05-14T03:51:49.901Z,6.70
2019-05-14T03:54:19.625Z,6.70
2019-05-14T03:56:49.642Z,6.70
2019-05-14T03:59:20.109Z,6.60
2019-05-14T04:01:51.014Z,6.50
2019-05-14T04:04:20.618Z,6.40
2019-05-14T04:06:50.418Z,6.50
2019-05-14T04:09:20.510Z,6.50
2019-05-14T04:11:53.269Z,6.40
2019-05-14T04:14:24.787Z,6.40
2019-05-14T04:17:08.074Z,6.40
2019-05-14T04:19:29.876Z,6.50
2019-05-14T04:22:00.123Z,6.40
2019-05-14T04:24:31.258Z,6.50
2019-05-14T04:27:07.696Z,6.40
2019-05-14T04:29:34.303Z,6.40
2019-05-14T04:32:04.384Z,6.50
2019-05-14T04:34:33.796Z,6.40
2019-05-14T04:37:02.678Z,6.40
2019-05-14T04:39:31.622Z,6.40
2019-05-14T04:42:00.567Z,6.50
2019-05-14T04:44:29.864Z,6.50
2019-05-14T04:47:00.167Z,6.60
2019-05-14T04:49:30.280Z,6.60
2019-05-14T04:51:59.647Z,6.70
2019-05-14T04:54:30.222Z,6.60
2019-05-14T04:57:00.130Z,6.70
2019-05-14T04:59:30.112Z,6.70
2019-05-14T05:02:00.037Z,6.80
2019-05-14T05:04:30.032Z,6.90
2019-05-14T05:06:59.578Z,6.90
2019-05-14T05:09:29.455Z,7.00
2019-05-14T05:11:59.815Z,7.00
2019-05-14T05:14:29.651Z,7.10
2019-05-14T05:16:59.683Z,7.30
2019-05-14T05:19:29.192Z,7.30
2019-05-14T05:21:58.800Z,7.40
2019-05-14T05:24:28.737Z,7.50
2019-05-14T05:26:58.653Z,7.50
2019-05-14T05:29:28.579Z,7.50
2019-05-14T05:31:59.362Z,7.60
2019-05-14T05:34:28.762Z,7.60
2019-05-14T05:36:59.217Z,7.70
2019-05-14T05:39:28.515Z,7.70
2019-05-14T05:41:58.521Z,7.90
2019-05-14T05:44:28.762Z,7.90
2019-05-14T05:46:59.735Z,7.90
2019-05-14T05:49:29.185Z,7.90
2019-05-14T05:51:59.196Z,8.10
2019-05-14T05:54:29.195Z,8.10
2019-05-14T05:56:58.555Z,8.10
2019-05-14T05:59:29.268Z,8.20
2019-05-14T06:01:58.846Z,8.30
2019-05-14T06:04:29.016Z,8.40
2019-05-14T06:06:59.058Z,8.50
2019-05-14T06:09:28.856Z,8.50
2019-05-14T06:11:59.278Z,8.60
2019-05-14T06:14:29.106Z,8.60
2019-05-14T06:16:59.100Z,8.70
2019-05-14T06:19:29.045Z,8.80
2019-05-14T06:21:59.747Z,8.90
2019-05-14T06:24:29.332Z,8.90
2019-05-14T06:26:58.746Z,9.00
2019-05-14T06:29:28.939Z,9.20
2019-05-14T06:31:58.978Z,9.30
2019-05-14T06:34:29.092Z,9.30
2019-05-14T06:36:59.283Z,9.50
2019-05-14T06:39:28.488Z,9.50
2019-05-14T06:41:58.513Z,9.60
2019-05-14T06:44:29.424Z,9.70
2019-05-14T06:46:59.097Z,9.80
2019-05-14T06:49:28.992Z,9.90
2019-05-14T06:51:59.298Z,10.10
2019-05-14T06:54:29.285Z,10.20
2019-05-14T06:56:58.450Z,10.30
2019-05-14T06:59:28.846Z,10.30
2019-05-14T07:01:58.159Z,10.40
2019-05-14T07:04:28.855Z,10.30
2019-05-14T07:06:59.115Z,10.40
2019-05-14T07:09:28.977Z,10.60
2019-05-14T07:11:58.610Z,10.70
2019-05-14T07:14:28.232Z,10.80
2019-05-14T07:16:58.779Z,10.80
2019-05-14T07:19:29.495Z,10.90
2019-05-14T07:21:59.175Z,11.10
2019-05-14T07:24:28.429Z,11.00
2019-05-14T07:26:58.549Z,11.10
2019-05-14T07:29:29.253Z,11.20
2019-05-14T07:31:58.462Z,11.10
2019-05-14T07:34:28.317Z,10.80
2019-05-14T07:36:58.640Z,11.00
2019-05-14T07:39:29.078Z,11.20
2019-05-14T07:41:59.127Z,11.30
2019-05-14T07:44:29.643Z,11.40
2019-05-14T07:46:59.077Z,11.40
2019-05-14T07:49:29.054Z,11.50
2019-05-14T07:51:58.819Z,11.50
2019-05-14T07:54:28.307Z,11.40
2019-05-14T07:56:59.025Z,11.40
2019-05-14T07:59:28.701Z,11.40
2019-05-14T08:01:58.712Z,11.30
2019-05-14T08:04:29.005Z,11.30
2019-05-14T08:06:58.332Z,11.30
2019-05-14T08:09:28.286Z,11.50
2019-05-14T08:11:58.747Z,11.70
2019-05-14T08:14:29.394Z,11.80
2019-05-14T08:16:59.518Z,12.00
2019-05-14T08:19:31.494Z,12.10
2019-05-14T08:21:59.465Z,12.00
2019-05-14T08:24:30.115Z,11.80
2019-05-14T08:26:59.362Z,11.80
2019-05-14T08:29:28.751Z,12.00
2019-05-14T08:31:58.309Z,12.20
2019-05-14T08:34:30.391Z,12.10
2019-05-14T08:36:58.885Z,12.00
2019-05-14T08:39:28.658Z,11.80
2019-05-14T08:42:03.606Z,11.70
2019-05-14T08:44:30.957Z,11.60
2019-05-14T08:47:01.061Z,11.70
2019-05-14T08:49:41.926Z,11.70
2019-05-14T08:52:04.130Z,11.60
2019-05-14T08:54:34.123Z,11.60
2019-05-14T08:57:04.121Z,11.50
2019-05-14T08:59:33.557Z,11.50
2019-05-14T09:02:06.666Z,11.40
2019-05-14T09:04:33.177Z,11.30
2019-05-14T09:07:02.126Z,10.90
2019-05-14T09:09:30.953Z,10.80
2019-05-14T09:12:00.051Z,10.80
2019-05-14T09:14:29.239Z,10.80
2019-05-14T09:16:59.890Z,10.80
2019-05-14T09:19:28.876Z,11.00
2019-05-14T09:21:58.809Z,11.20
2019-05-14T09:24:29.131Z,11.20
2019-05-14T09:26:59.385Z,11.30
2019-05-14T09:29:29.901Z,11.30
2019-05-14T09:31:59.409Z,11.40
2019-05-14T09:34:29.126Z,11.40
2019-05-14T09:36:59.349Z,11.30
2019-05-14T09:39:29.086Z,11.30
2019-05-14T09:41:58.490Z,11.40
2019-05-14T09:44:29.269Z,11.40
2019-05-14T09:46:59.407Z,11.50
2019-05-14T09:49:28.630Z,11.60
2019-05-14T09:51:58.329Z,11.80
2019-05-14T09:54:28.662Z,12.00
2019-05-14T09:56:59.146Z,12.20
2019-05-14T09:59:28.592Z,12.70
2019-05-14T10:01:58.542Z,13.10
2019-05-14T10:04:27.894Z,13.40
2019-05-14T10:06:59.072Z,13.30
2019-05-14T10:09:29.027Z,13.10
2019-05-14T10:11:58.222Z,12.80
2019-05-14T10:14:29.605Z,12.60
2019-05-14T10:16:58.309Z,12.60
2019-05-14T10:19:29.656Z,13.00
2019-05-14T10:21:58.757Z,13.10
2019-05-14T10:24:29.113Z,13.00
2019-05-14T10:26:58.723Z,13.00
2019-05-14T10:29:28.606Z,12.90
2019-05-14T10:31:59.252Z,13.30
2019-05-14T10:34:28.809Z,13.30
2019-05-14T10:36:59.071Z,13.50
2019-05-14T10:39:29.862Z,13.60
2019-05-14T10:41:59.081Z,13.80
2019-05-14T10:44:29.224Z,13.80
2019-05-14T10:46:59.517Z,13.80
2019-05-14T10:49:29.976Z,13.70
2019-05-14T10:51:59.077Z,13.60
2019-05-14T10:54:29.220Z,13.30
2019-05-14T10:56:59.384Z,13.30
2019-05-14T10:59:29.438Z,13.10
2019-05-14T11:01:58.708Z,12.80
2019-05-14T11:04:28.635Z,12.50
2019-05-14T11:06:57.796Z,12.40
2019-05-14T11:09:28.590Z,12.50
2019-05-14T11:11:58.356Z,12.50
2019-05-14T11:14:31.347Z,12.60
2019-05-14T11:16:59.219Z,12.60
2019-05-14T11:19:28.310Z,12.60
2019-05-14T11:21:58.043Z,12.60
2019-05-14T11:24:29.609Z,12.50
2019-05-14T11:26:59.037Z,12.70
2019-05-14T11:29:29.616Z,12.70
2019-05-14T11:31:59.098Z,12.90
2019-05-14T11:34:28.728Z,13.30
2019-05-14T11:36:58.969Z,13.60
2019-05-14T11:39:28.797Z,13.50
2019-05-14T11:41:59.081Z,13.40
2019-05-14T11:44:28.697Z,13.80
2019-05-14T11:47:02.348Z,13.90
2019-05-14T11:49:28.633Z,14.20
2019-05-14T11:52:06.977Z,14.40
2019-05-14T11:54:29.209Z,14.80
2019-05-14T11:56:59.025Z,14.90
2019-05-14T11:59:28.483Z,15.20
2019-05-14T12:01:59.387Z,15.00
2019-05-14T12:04:28.490Z,15.20
2019-05-14T12:06:59.085Z,15.70
2019-05-14T12:09:28.443Z,16.00
2019-05-14T12:11:58.664Z,15.80
2019-05-14T12:14:27.961Z,15.70
2019-05-14T12:16:59.727Z,15.90
2019-05-14T12:19:28.391Z,16.20
2019-05-14T12:22:06.682Z,16.40
2019-05-14T12:24:29.191Z,16.30
2019-05-14T12:26:58.655Z,15.90
2019-05-14T12:29:29.245Z,16.10
2019-05-14T12:31:58.661Z,16.00
2019-05-14T12:34:29.558Z,15.80
2019-05-14T12:36:58.585Z,15.60
2019-05-14T12:39:29.338Z,15.30
2019-05-14T12:41:58.268Z,15.00
2019-05-14T12:44:29.079Z,14.80
2019-05-14T12:46:58.800Z,14.70
2019-05-14T12:49:27.799Z,14.90
2019-05-14T12:51:59.050Z,15.20
2019-05-14T12:54:29.669Z,15.60
2019-05-14T12:56:57.864Z,15.80
2019-05-14T12:59:28.527Z,16.00
2019-05-14T13:01:58.700Z,15.90
2019-05-14T13:04:28.518Z,16.20
2019-05-14T13:06:59.839Z,16.50
2019-05-14T13:09:28.150Z,16.60
2019-05-14T13:11:58.640Z,16.20
2019-05-14T13:14:28.362Z,16.10
2019-05-14T13:16:59.596Z,16.40
2019-05-14T13:19:28.545Z,16.80
2019-05-14T13:22:09.913Z,17.10
2019-05-14T13:24:28.833Z,17.00
2019-05-14T13:26:58.796Z,17.20
2019-05-14T13:29:28.949Z,16.90
2019-05-14T13:31:59.240Z,16.80
2019-05-14T13:34:29.020Z,16.80
2019-05-14T13:36:59.673Z,17.00
2019-05-14T13:39:28.798Z,16.40
2019-05-14T13:41:58.897Z,15.40
2019-05-14T13:44:29.229Z,15.30
2019-05-14T13:46:59.639Z,15.30
2019-05-14T13:49:29.594Z,15.10
2019-05-14T13:51:58.733Z,15.20
2019-05-14T13:54:31.657Z,15.60
2019-05-14T13:56:58.619Z,15.80
2019-05-14T13:59:27.915Z,16.00
2019-05-14T14:01:59.214Z,16.10
2019-05-14T14:04:27.509Z,15.80
2019-05-14T14:06:59.095Z,15.70
2019-05-14T14:09:28.327Z,16.00
2019-05-14T14:11:58.768Z,16.10
2019-05-14T14:14:29.144Z,16.20
2019-05-14T14:16:58.404Z,16.20
2019-05-14T14:19:28.210Z,16.50
2019-05-14T14:21:59.131Z,16.40
2019-05-14T14:24:29.096Z,16.30
2019-05-14T14:26:58.394Z,16.30
2019-05-14T14:29:27.483Z,16.50
2019-05-14T14:31:58.814Z,16.40
2019-05-14T14:34:28.991Z,16.40
2019-05-14T14:36:59.297Z,15.80
2019-05-14T14:39:28.693Z,15.50
2019-05-14T14:41:58.474Z,15.20
2019-05-14T14:44:29.195Z,14.80
2019-05-14T14:46:58.330Z,14.60
2019-05-14T14:49:28.170Z,14.30
2019-05-14T14:51:58.958Z,14.30
2019-05-14T14:54:28.820Z,14.10
2019-05-14T14:56:59.195Z,14.00
2019-05-14T14:59:30.398Z,13.80
2019-05-14T15:01:59.955Z,13.80
2019-05-14T15:04:29.031Z,13.70
2019-05-14T15:06:59.771Z,13.40
2019-05-14T15:09:28.797Z,13.40
2019-05-14T15:11:59.864Z,13.60
2019-05-14T15:14:29.683Z,13.50
2019-05-14T15:16:58.966Z,13.70
2019-05-14T15:19:29.773Z,13.70
2019-05-14T15:21:59.135Z,13.70
2019-05-14T15:24:28.155Z,13.80
2019-05-14T15:27:06.860Z,13.70
2019-05-14T15:29:28.454Z,13.70
2019-05-14T15:31:59.211Z,13.60
2019-05-14T15:34:29.711Z,13.70
2019-05-14T15:36:59.811Z,13.90
2019-05-14T15:39:30.183Z,13.90
2019-05-14T15:42:05.088Z,13.70
2019-05-14T15:44:46.474Z,13.70
2019-05-14T15:47:00.714Z,13.70
2019-05-14T15:49:29.579Z,13.70
2019-05-14T15:51:58.463Z,13.60
2019-05-14T15:54:39.822Z,13.50
2019-05-14T15:56:58.840Z,13.50
2019-05-14T15:59:28.455Z,13.30
2019-05-14T16:01:57.543Z,13.20
2019-05-14T16:04:28.654Z,13.20
2019-05-14T16:06:58.600Z,13.30
2019-05-14T16:09:28.944Z,13.50
2019-05-14T16:11:58.882Z,13.50
2019-05-14T16:14:29.998Z,13.60
2019-05-14T16:16:58.594Z,13.50
2019-05-14T16:19:28.434Z,13.30
2019-05-14T16:21:58.622Z,13.10
2019-05-14T16:24:28.521Z,12.90
2019-05-14T16:27:00.021Z,12.60
2019-05-14T16:29:40.385Z,12.50
2019-05-14T16:31:58.854Z,12.40
2019-05-14T16:34:28.702Z,12.40
2019-05-14T16:36:58.480Z,12.50
2019-05-14T16:39:28.461Z,12.40
2019-05-14T16:41:58.250Z,12.50
2019-05-14T16:44:28.362Z,12.70
2019-05-14T16:46:58.641Z,12.70
2019-05-14T16:49:29.940Z,12.70
2019-05-14T16:51:59.556Z,12.80
2019-05-14T16:54:29.511Z,12.70
2019-05-14T16:56:58.912Z,12.60
2019-05-14T16:59:29.594Z,12.60
2019-05-14T17:01:58.810Z,12.60
2019-05-14T17:04:29.354Z,12.60
2019-05-14T17:06:59.041Z,12.60
2019-05-14T17:09:28.333Z,12.70
2019-05-14T17:11:58.978Z,12.60
2019-05-14T17:14:29.150Z,12.60
2019-05-14T17:16:59.584Z,12.90
2019-05-14T17:19:29.798Z,13.10
2019-05-14T17:21:59.524Z,12.90
2019-05-14T17:24:29.246Z,12.80
2019-05-14T17:26:58.439Z,12.70
2019-05-14T17:29:28.646Z,12.60
2019-05-14T17:31:57.815Z,12.50
2019-05-14T17:34:29.086Z,12.40
2019-05-14T17:36:59.406Z,12.30
2019-05-14T17:39:28.088Z,12.30
2019-05-14T17:41:58.906Z,12.30
2019-05-14T17:44:27.575Z,12.20
2019-05-14T17:46:58.542Z,12.20
2019-05-14T17:49:28.366Z,12.20
2019-05-14T17:51:58.198Z,12.10
2019-05-14T17:54:28.463Z,12.00
2019-05-14T17:56:59.255Z,11.90
2019-05-14T17:59:29.827Z,11.80
2019-05-14T18:01:58.995Z,11.80
2019-05-14T18:04:28.326Z,11.70
2019-05-14T18:06:59.168Z,11.60
2019-05-14T18:09:29.368Z,11.50
2019-05-14T18:11:58.745Z,11.40
2019-05-14T18:14:28.404Z,11.40
2019-05-14T18:16:58.508Z,11.20
2019-05-14T18:19:29.003Z,11.20
2019-05-14T18:21:59.379Z,11.10
2019-05-14T18:24:28.792Z,11.10
2019-05-14T18:26:57.791Z,11.00
2019-05-14T18:29:29.527Z,11.00
2019-05-14T18:32:00.965Z,10.90
2019-05-14T18:34:28.921Z,10.70
2019-05-14T18:37:00.774Z,10.70
2019-05-14T18:39:28.670Z,10.60
2019-05-14T18:42:00.625Z,10.60
2019-05-14T18:44:28.543Z,10.60
2019-05-14T18:46:59.386Z,10.50
2019-05-14T18:49:28.829Z,10.40
2019-05-14T18:51:59.314Z,10.30
2019-05-14T18:54:29.396Z,10.30
2019-05-14T18:56:59.650Z,10.20
2019-05-14T18:59:30.902Z,10.10
2019-05-14T19:01:59.834Z,10.10
2019-05-14T19:04:29.034Z,10.10
2019-05-14T19:06:59.058Z,10.00
2019-05-14T19:09:29.214Z,10.10
2019-05-14T19:11:58.786Z,10.00
2019-05-14T19:14:29.238Z,10.00
2019-05-14T19:16:58.637Z,10.00
2019-05-14T19:19:29.385Z,9.90
2019-05-14T19:21:58.622Z,9.90
2019-05-14T19:24:28.695Z,9.90
2019-05-14T19:26:59.564Z,9.80
2019-05-14T19:29:28.553Z,9.80
2019-05-14T19:31:57.478Z,9.80
2019-05-14T19:34:28.701Z,9.80
2019-05-14T19:36:57.352Z,9.80
2019-05-14T19:39:28.234Z,9.80
2019-05-14T19:41:56.908Z,9.80
2019-05-14T19:44:25.808Z,9.80
2019-05-14T19:46:55.081Z,9.80
2019-05-14T19:49:23.937Z,9.80
2019-05-14T19:51:53.178Z,9.80
2019-05-14T19:54:22.125Z,9.80
2019-05-14T19:56:56.878Z,9.80
2019-05-14T19:59:21.641Z,9.70
2019-05-14T20:01:50.630Z,9.70
2019-05-14T20:04:19.552Z,9.70
2019-05-14T20:06:49.553Z,9.60
2019-05-14T20:09:18.799Z,9.60
2019-05-14T20:11:49.050Z,9.70
2019-05-14T20:14:18.185Z,9.60
2019-05-14T20:16:49.085Z,9.40
2019-05-14T20:19:19.300Z,9.40
2019-05-14T20:21:48.410Z,9.50
2019-05-14T20:24:18.871Z,9.40
2019-05-14T20:26:48.781Z,9.40
2019-05-14T20:29:19.472Z,9.30
2019-05-14T20:31:48.570Z,9.20
2019-05-14T20:34:19.107Z,9.20
2019-05-14T20:36:48.364Z,9.30
2019-05-14T20:39:18.255Z,9.20
2019-05-14T20:41:49.040Z,9.20
2019-05-14T20:44:18.998Z,9.20
2019-05-14T20:46:49.017Z,9.10
2019-05-14T20:49:19.040Z,9.10
2019-05-14T20:51:49.399Z,9.00
2019-05-14T20:54:18.540Z,9.00
2019-05-14T20:56:49.245Z,9.00
2019-05-14T20:59:19.164Z,8.90
2019-05-14T21:01:48.227Z,8.90
2019-05-14T21:04:18.906Z,8.90
2019-05-14T21:06:48.704Z,8.80
2019-05-14T21:09:19.139Z,8.70
2019-05-14T21:11:49.276Z,8.80
2019-05-14T21:14:18.577Z,8.80
2019-05-14T21:16:48.836Z,8.70
2019-05-14T21:19:18.063Z,8.70
2019-05-14T21:21:49.000Z,8.70
2019-05-14T21:24:18.125Z,8.60
2019-05-14T21:26:48.426Z,8.70
2019-05-14T21:29:17.371Z,8.70
2019-05-14T21:31:46.262Z,8.80
2019-05-14T21:34:15.967Z,8.70
2019-05-14T21:36:45.870Z,8.70
2019-05-14T21:39:14.894Z,8.70
2019-05-14T21:41:44.034Z,8.70
2019-05-14T21:44:13.350Z,8.70
2019-05-14T21:46:42.334Z,8.70
2019-05-14T21:49:11.499Z,8.70
2019-05-14T21:51:40.502Z,8.70
2019-05-14T21:54:09.621Z,8.60
2019-05-14T21:56:38.922Z,8.60
2019-05-14T21:59:09.456Z,8.70
2019-05-14T22:01:39.676Z,8.60
2019-05-14T22:04:11.551Z,8.60
2019-05-14T22:06:41.235Z,8.50
2019-05-14T22:09:11.127Z,8.50
2019-05-14T22:11:40.160Z,8.40
2019-05-14T22:14:09.682Z,8.40
2019-05-14T22:16:38.740Z,8.40
2019-05-14T22:19:08.495Z,8.50
2019-05-14T22:21:38.636Z,8.40
2019-05-14T22:24:08.342Z,8.40
2019-05-14T22:26:38.793Z,8.40
2019-05-14T22:29:08.436Z,8.40
2019-05-14T22:31:38.757Z,8.40
2019-05-14T22:34:08.924Z,8.40
2019-05-14T22:36:39.631Z,8.40
2019-05-14T22:39:08.985Z,8.50
2019-05-14T22:41:38.262Z,8.50
2019-05-14T22:44:09.519Z,8.40
2019-05-14T22:46:40.284Z,8.40
2019-05-14T22:49:09.256Z,8.50
2019-05-14T22:51:38.849Z,8.40
2019-05-14T22:54:08.687Z,8.50
2019-05-14T22:56:38.918Z,8.40
2019-05-14T22:59:08.056Z,8.40
2019-05-14T23:01:38.734Z,8.40
2019-05-14T23:04:09.067Z,8.40
2019-05-14T23:06:38.497Z,8.40
2019-05-14T23:09:08.993Z,8.30
2019-05-14T23:11:38.632Z,8.30
2019-05-14T23:14:07.785Z,8.40
2019-05-14T23:16:41.187Z,8.40
2019-05-14T23:19:08.302Z,8.30
2019-05-14T23:21:39.030Z,8.30
2019-05-14T23:24:09.117Z,8.20
2019-05-14T23:26:38.422Z,8.20
2019-05-14T23:29:07.405Z,8.10
2019-05-14T23:31:38.521Z,8.10
2019-05-14T23:34:06.892Z,8.10
2019-05-14T23:36:35.962Z,8.10
2019-05-14T23:39:08.807Z,8.10
2019-05-14T23:41:38.380Z,8.10
2019-05-14T23:44:08.356Z,8.10
2019-05-14T23:46:37.460Z,8.10
2019-05-14T23:49:08.743Z,8.10
2019-05-14T23:51:38.541Z,8.10
2019-05-14T23:54:08.831Z,8.10
2019-05-14T23:56:38.548Z,8.10
2019-05-14T23:59:09.334Z,8.20
